createdAt,value
2022-12-04T00:00:21.304Z,13.00
2022-12-04T00:02:49.523Z,13.00
2022-12-04T00:05:18.109Z,13.00
2022-12-04T00:07:46.085Z,13.00
2022-12-04T00:10:14.147Z,13.00
2022-12-04T00:12:42.077Z,13.00
2022-12-04T00:15:27.764Z,13.00
2022-12-04T00:17:55.789Z,13.00
2022-12-04T00:20:24.509Z,13.00
2022-12-04T00:22:53.071Z,13.00
2022-12-04T00:25:20.843Z,13.00
2022-12-04T00:27:48.660Z,12.90
2022-12-04T00:30:17.973Z,12.90
2022-12-04T00:32:46.428Z,12.90
2022-12-04T00:35:14.461Z,12.90
2022-12-04T00:37:42.826Z,12.90
2022-12-04T00:40:11.457Z,12.90
2022-12-04T00:42:39.591Z,12.90
2022-12-04T00:45:08.396Z,12.90
2022-12-04T00:47:38.293Z,13.00
2022-12-04T00:50:07.230Z,12.90
2022-12-04T00:52:35.356Z,12.90
2022-12-04T00:55:03.045Z,12.90
2022-12-04T00:57:31.220Z,12.90
2022-12-04T00:59:58.890Z,12.90
2022-12-04T01:02:27.025Z,12.90
2022-12-04T01:04:56.049Z,12.90
2022-12-04T01:07:24.085Z,12.90
2022-12-04T01:09:52.069Z,12.90
2022-12-04T01:12:21.073Z,12.90
2022-12-04T01:14:49.505Z,12.90
2022-12-04T01:17:17.421Z,12.90
2022-12-04T01:19:45.348Z,12.90
2022-12-04T01:22:14.693Z,12.90
2022-12-04T01:24:43.025Z,12.90
2022-12-04T01:27:10.929Z,12.90
2022-12-04T01:29:38.920Z,12.90
2022-12-04T01:32:07.292Z,12.90
2022-12-04T01:34:35.638Z,12.90
2022-12-04T01:37:03.488Z,12.90
2022-12-04T01:39:33.068Z,12.90
2022-12-04T01:42:00.738Z,12.90
2022-12-04T01:44:28.829Z,12.80
2022-12-04T01:46:56.921Z,12.90
2022-12-04T01:49:26.661Z,12.90
2022-12-04T01:51:55.392Z,12.90
2022-12-04T01:54:29.061Z,12.80
2022-12-04T01:56:59.847Z,12.80
2022-12-04T01:59:29.605Z,12.90
2022-12-04T02:02:00.632Z,12.80
2022-12-04T02:04:28.450Z,12.80
2022-12-04T02:06:56.138Z,12.80
2022-12-04T02:09:26.799Z,12.80
2022-12-04T02:12:02.881Z,12.80
2022-12-04T02:14:34.243Z,12.80
2022-12-04T02:17:06.238Z,12.80
2022-12-04T02:20:07.128Z,12.80
2022-12-04T02:22:46.501Z,12.80
2022-12-04T02:25:18.145Z,12.80
2022-12-04T02:28:01.110Z,12.80
2022-12-04T02:30:29.469Z,12.80
2022-12-04T02:33:00.960Z,12.80
2022-12-04T02:35:30.521Z,12.80
2022-12-04T02:38:00.208Z,12.80
2022-12-04T02:40:29.489Z,12.80
2022-12-04T02:43:00.915Z,12.80
2022-12-04T02:45:31.750Z,12.80
2022-12-04T02:47:59.672Z,12.80
2022-12-04T02:50:27.767Z,12.80
2022-12-04T02:52:56.584Z,12.80
2022-12-04T02:55:25.626Z,12.80
2022-12-04T02:57:55.976Z,12.70
2022-12-04T03:00:25.719Z,12.80
2022-12-04T03:02:55.804Z,12.80
2022-12-04T03:05:25.863Z,12.80
2022-12-04T03:07:55.165Z,12.80
2022-12-04T03:10:26.089Z,12.80
2022-12-04T03:12:55.503Z,12.70
2022-12-04T03:15:26.145Z,12.70
2022-12-04T03:17:56.653Z,12.80
2022-12-04T03:20:24.576Z,12.70
2022-12-04T03:22:56.140Z,12.80
2022-12-04T03:25:25.181Z,12.80
2022-12-04T03:27:55.492Z,12.80
2022-12-04T03:30:24.955Z,12.70
2022-12-04T03:32:54.470Z,12.70
2022-12-04T03:35:24.371Z,12.70
2022-12-04T03:37:56.228Z,12.70
2022-12-04T03:40:24.957Z,12.70
2022-12-04T03:42:56.195Z,12.80
2022-12-04T03:45:26.492Z,12.80
2022-12-04T03:47:56.976Z,12.80
2022-12-04T03:50:29.801Z,12.70
2022-12-04T03:53:01.516Z,12.70
2022-12-04T03:55:30.875Z,12.70
2022-12-04T03:58:01.500Z,12.70
2022-12-04T04:00:31.065Z,12.70
2022-12-04T04:03:01.496Z,12.70
2022-12-04T04:05:29.456Z,12.70
2022-12-04T04:08:18.600Z,12.70
2022-12-04T04:10:46.470Z,12.70
2022-12-04T04:13:33.978Z,12.70
2022-12-04T04:16:18.275Z,12.70
2022-12-04T04:19:03.912Z,12.70
2022-12-04T04:21:52.268Z,12.70
2022-12-04T04:24:28.964Z,12.70
2022-12-04T04:26:57.359Z,12.70
2022-12-04T04:29:25.321Z,12.70
2022-12-04T04:31:57.280Z,12.70
2022-12-04T04:34:28.276Z,12.70
2022-12-04T04:36:58.182Z,12.70
2022-12-04T04:39:29.988Z,12.70
2022-12-04T04:41:59.485Z,12.70
2022-12-04T04:44:29.265Z,12.70
2022-12-04T04:47:01.323Z,12.70
2022-12-04T04:49:29.863Z,12.70
2022-12-04T04:51:57.758Z,12.70
2022-12-04T04:54:25.742Z,12.70
2022-12-04T04:56:53.707Z,12.70
2022-12-04T04:59:21.988Z,12.70
2022-12-04T05:01:49.953Z,12.70
2022-12-04T05:04:19.586Z,12.70
2022-12-04T05:06:48.980Z,12.70
2022-12-04T05:09:16.936Z,12.70
2022-12-04T05:11:44.962Z,12.70
2022-12-04T05:14:13.201Z,12.70
2022-12-04T05:16:41.795Z,12.70
2022-12-04T05:19:27.560Z,12.70
2022-12-04T05:21:57.650Z,12.70
2022-12-04T05:24:25.979Z,12.70
2022-12-04T05:26:53.846Z,12.70
2022-12-04T05:29:21.711Z,12.70
2022-12-04T05:31:49.420Z,12.70
2022-12-04T05:34:17.318Z,12.70
2022-12-04T05:36:45.165Z,12.70
2022-12-04T05:39:14.591Z,12.70
2022-12-04T05:41:42.479Z,12.70
2022-12-04T05:44:10.564Z,12.70
2022-12-04T05:46:39.173Z,12.70
2022-12-04T05:49:07.088Z,12.70
2022-12-04T05:51:35.590Z,12.70
2022-12-04T05:54:03.435Z,12.70
2022-12-04T05:56:32.627Z,12.70
2022-12-04T05:59:00.574Z,12.70
2022-12-04T06:01:29.035Z,12.70
2022-12-04T06:03:57.062Z,12.70
2022-12-04T06:06:26.163Z,12.70
2022-12-04T06:08:54.851Z,12.70
2022-12-04T06:11:23.952Z,12.70
2022-12-04T06:13:53.419Z,12.70
2022-12-04T06:16:22.864Z,12.70
2022-12-04T06:18:51.662Z,12.70
2022-12-04T06:21:19.576Z,12.70
2022-12-04T06:23:47.770Z,12.70
2022-12-04T06:26:15.677Z,12.70
2022-12-04T06:28:43.851Z,12.70
2022-12-04T06:31:13.672Z,12.70
2022-12-04T06:33:42.000Z,12.70
2022-12-04T06:36:11.664Z,12.70
2022-12-04T06:38:39.980Z,12.70
2022-12-04T06:41:08.948Z,12.70
2022-12-04T06:43:36.886Z,12.70
2022-12-04T06:46:06.292Z,12.70
2022-12-04T06:48:35.655Z,12.70
2022-12-04T06:51:04.451Z,12.70
2022-12-04T06:53:32.864Z,12.70
2022-12-04T06:56:01.300Z,12.70
2022-12-04T06:58:29.189Z,12.70
2022-12-04T07:00:57.255Z,12.70
2022-12-04T07:03:25.035Z,12.70
2022-12-04T07:05:54.597Z,12.70
2022-12-04T07:08:22.745Z,12.70
2022-12-04T07:10:55.820Z,12.70
2022-12-04T07:13:26.801Z,12.70
2022-12-04T07:15:55.012Z,12.70
2022-12-04T07:18:22.938Z,12.70
2022-12-04T07:20:50.769Z,12.70
2022-12-04T07:23:20.145Z,12.70
2022-12-04T07:25:48.172Z,12.70
2022-12-04T07:28:15.856Z,12.70
2022-12-04T07:30:44.078Z,12.70
2022-12-04T07:33:11.768Z,12.70
2022-12-04T07:35:40.289Z,12.70
2022-12-04T07:38:07.980Z,12.70
2022-12-04T07:40:38.608Z,12.70
2022-12-04T07:43:06.474Z,12.70
2022-12-04T07:45:34.811Z,12.70
2022-12-04T07:48:02.798Z,12.70
2022-12-04T07:50:30.616Z,12.70
2022-12-04T07:52:58.795Z,12.80
2022-12-04T07:55:27.137Z,12.70
2022-12-04T07:57:56.394Z,12.80
2022-12-04T08:00:24.487Z,12.70
2022-12-04T08:02:52.913Z,12.80
2022-12-04T08:05:20.699Z,12.70
2022-12-04T08:07:48.617Z,12.80
2022-12-04T08:10:16.645Z,12.80
2022-12-04T08:12:44.372Z,12.80
2022-12-04T08:15:13.552Z,12.80
2022-12-04T08:17:42.111Z,12.80
2022-12-04T08:20:10.480Z,12.80
2022-12-04T08:22:38.799Z,12.80
2022-12-04T08:25:07.220Z,12.80
2022-12-04T08:27:36.080Z,12.80
2022-12-04T08:30:04.114Z,12.80
2022-12-04T08:32:33.382Z,12.80
2022-12-04T08:35:01.246Z,12.90
2022-12-04T08:37:29.144Z,12.90
2022-12-04T08:39:58.555Z,12.90
2022-12-04T08:42:26.408Z,12.90
2022-12-04T08:44:54.156Z,12.90
2022-12-04T08:47:22.625Z,12.90
2022-12-04T08:49:51.883Z,12.90
2022-12-04T08:52:19.751Z,12.90
2022-12-04T08:54:47.811Z,13.00
2022-12-04T08:57:15.702Z,13.00
2022-12-04T08:59:44.292Z,13.00
2022-12-04T09:02:13.079Z,13.00
2022-12-04T09:04:41.375Z,13.00
2022-12-04T09:07:10.651Z,13.00
2022-12-04T09:09:42.291Z,13.00
2022-12-04T09:12:12.697Z,13.00
2022-12-04T09:14:40.389Z,13.00
2022-12-04T09:17:08.126Z,13.10
2022-12-04T09:19:37.160Z,13.10
2022-12-04T09:22:05.485Z,13.10
2022-12-04T09:24:34.822Z,13.10
2022-12-04T09:27:03.111Z,13.10
2022-12-04T09:29:31.018Z,13.10
2022-12-04T09:31:59.307Z,13.10
2022-12-04T09:34:27.170Z,13.10
2022-12-04T09:36:55.403Z,13.20
2022-12-04T09:39:23.271Z,13.20
2022-12-04T09:42:00.241Z,13.20
2022-12-04T09:44:29.438Z,13.20
2022-12-04T09:47:00.615Z,13.20
2022-12-04T09:49:30.355Z,13.20
2022-12-04T09:52:00.683Z,13.20
2022-12-04T09:54:30.535Z,13.20
2022-12-04T09:57:03.016Z,13.20
2022-12-04T09:59:31.798Z,13.20
2022-12-04T10:02:02.054Z,13.20
2022-12-04T10:04:30.053Z,13.20
2022-12-04T10:07:02.364Z,13.20
2022-12-04T10:09:32.364Z,13.20
2022-12-04T10:12:07.662Z,13.30
2022-12-04T10:14:49.992Z,13.30
2022-12-04T10:17:30.887Z,13.30
2022-12-04T10:20:03.843Z,13.30
2022-12-04T10:22:35.141Z,13.40
2022-12-04T10:25:06.780Z,13.40
2022-12-04T10:27:37.569Z,13.40
2022-12-04T10:30:08.556Z,13.30
2022-12-04T10:32:36.839Z,13.40
2022-12-04T10:35:09.892Z,13.40
2022-12-04T10:37:40.919Z,13.40
2022-12-04T10:40:10.914Z,13.40
2022-12-04T10:42:42.120Z,13.40
2022-12-04T10:45:11.342Z,13.40
2022-12-04T10:47:39.083Z,13.50
2022-12-04T10:50:15.640Z,13.50
2022-12-04T10:52:43.473Z,13.50
2022-12-04T10:55:11.723Z,13.50
2022-12-04T10:57:41.764Z,13.50
2022-12-04T11:00:27.150Z,13.50
2022-12-04T11:02:56.185Z,13.50
2022-12-04T11:05:26.528Z,13.50
2022-12-04T11:07:54.758Z,13.50
2022-12-04T11:10:24.442Z,13.50
2022-12-04T11:12:57.259Z,13.50
2022-12-04T11:15:25.684Z,13.50
2022-12-04T11:17:53.742Z,13.50
2022-12-04T11:20:22.646Z,13.50
2022-12-04T11:22:52.449Z,13.50
2022-12-04T11:25:21.545Z,13.50
2022-12-04T11:27:50.640Z,13.50
2022-12-04T11:30:22.760Z,13.50
2022-12-04T11:32:50.605Z,13.60
2022-12-04T11:35:22.075Z,13.50
2022-12-04T11:37:53.951Z,13.60
2022-12-04T11:40:21.892Z,13.50
2022-12-04T11:42:59.398Z,13.50
2022-12-04T11:45:29.052Z,13.60
2022-12-04T11:47:57.575Z,13.60
2022-12-04T11:50:30.862Z,13.60
2022-12-04T11:53:05.195Z,13.60
2022-12-04T11:55:35.827Z,13.60
2022-12-04T11:58:15.065Z,13.60
2022-12-04T12:00:46.723Z,13.60
2022-12-04T12:03:16.038Z,13.60
2022-12-04T12:06:19.933Z,13.60
2022-12-04T12:08:56.200Z,13.70
2022-12-04T12:11:26.759Z,13.70
2022-12-04T12:13:59.303Z,13.60
2022-12-04T12:16:32.894Z,13.60
2022-12-04T12:19:16.701Z,13.60
2022-12-04T12:21:47.779Z,13.60
2022-12-04T12:24:26.262Z,13.60
2022-12-04T12:26:57.864Z,13.60
2022-12-04T12:29:36.540Z,13.60
2022-12-04T12:32:19.034Z,13.70
2022-12-04T12:34:46.935Z,13.60
2022-12-04T12:37:21.099Z,13.60
2022-12-04T12:39:51.497Z,13.60
2022-12-04T12:42:22.028Z,13.70
2022-12-04T12:44:53.146Z,13.70
2022-12-04T12:47:23.991Z,13.70
2022-12-04T12:49:55.270Z,13.70
2022-12-04T12:52:29.050Z,13.70
2022-12-04T12:54:58.756Z,13.70
2022-12-04T12:57:28.397Z,13.70
2022-12-04T12:59:57.451Z,13.70
2022-12-04T13:02:29.645Z,13.70
2022-12-04T13:04:58.978Z,13.70
2022-12-04T13:07:29.302Z,13.70
2022-12-04T13:09:59.270Z,13.70
2022-12-04T13:12:27.604Z,13.70
2022-12-04T13:14:55.635Z,13.70
2022-12-04T13:17:30.460Z,13.70
2022-12-04T13:19:58.636Z,13.70
2022-12-04T13:22:29.379Z,13.70
2022-12-04T13:25:19.605Z,13.70
2022-12-04T13:27:51.522Z,13.70
2022-12-04T13:30:20.604Z,13.70
2022-12-04T13:33:10.627Z,13.70
2022-12-04T13:35:48.811Z,13.70
2022-12-04T13:38:20.459Z,13.70
2022-12-04T13:40:48.583Z,13.70
2022-12-04T13:43:20.573Z,13.70
2022-12-04T13:45:48.910Z,13.70
2022-12-04T13:48:31.078Z,13.70
2022-12-04T13:51:03.653Z,13.70
2022-12-04T13:53:33.120Z,13.70
2022-12-04T13:56:07.493Z,13.70
2022-12-04T13:58:36.887Z,13.70
2022-12-04T14:01:12.981Z,13.70
2022-12-04T14:03:47.444Z,13.80
2022-12-04T14:06:23.124Z,13.70
2022-12-04T14:08:55.943Z,13.80
2022-12-04T14:11:24.177Z,13.80
2022-12-04T14:13:53.286Z,13.80
2022-12-04T14:16:23.776Z,13.80
2022-12-04T14:18:54.105Z,13.80
2022-12-04T14:21:21.859Z,13.70
2022-12-04T14:23:49.885Z,13.60
2022-12-04T14:26:23.202Z,13.50
2022-12-04T14:28:52.394Z,13.30
2022-12-04T14:31:27.044Z,13.30
2022-12-04T14:33:57.375Z,13.20
2022-12-04T14:36:26.592Z,13.10
2022-12-04T14:39:03.250Z,13.00
2022-12-04T14:41:31.502Z,13.10
2022-12-04T14:43:59.390Z,13.00
2022-12-04T14:46:32.654Z,13.00
2022-12-04T14:49:08.881Z,13.00
2022-12-04T14:51:38.493Z,12.90
2022-12-04T14:54:10.778Z,12.90
2022-12-04T14:56:45.620Z,12.90
2022-12-04T14:59:17.788Z,12.80
2022-12-04T15:01:46.741Z,12.80
2022-12-04T15:04:19.805Z,12.80
2022-12-04T15:06:48.064Z,12.70
2022-12-04T15:09:36.428Z,12.80
2022-12-04T15:12:33.162Z,12.70
2022-12-04T15:15:02.644Z,12.60
2022-12-04T15:17:30.634Z,12.70
2022-12-04T15:20:11.330Z,12.70
2022-12-04T15:22:39.343Z,12.70
2022-12-04T15:25:08.094Z,12.80
2022-12-04T15:27:36.015Z,12.80
2022-12-04T15:30:04.328Z,12.80
2022-12-04T15:32:32.318Z,12.80
2022-12-04T15:35:01.736Z,12.80
2022-12-04T15:37:31.437Z,12.80
2022-12-04T15:39:59.731Z,12.80
2022-12-04T15:42:28.606Z,12.80
2022-12-04T15:45:01.359Z,12.80
2022-12-04T15:47:30.699Z,12.80
2022-12-04T15:50:09.381Z,12.80
2022-12-04T15:52:38.684Z,12.80
2022-12-04T15:55:08.140Z,12.70
2022-12-04T15:57:37.429Z,12.70
2022-12-04T16:00:06.841Z,12.70
2022-12-04T16:02:36.657Z,12.80
2022-12-04T16:05:13.106Z,12.80
2022-12-04T16:07:50.731Z,12.80
2022-12-04T16:10:22.250Z,12.80
2022-12-04T16:12:53.507Z,12.90
2022-12-04T16:15:21.440Z,12.80
2022-12-04T16:17:49.304Z,12.80
2022-12-04T16:20:17.328Z,12.80
2022-12-04T16:22:45.253Z,12.80
2022-12-04T16:25:14.653Z,12.80
2022-12-04T16:27:42.659Z,12.70
2022-12-04T16:30:11.390Z,12.70
2022-12-04T16:32:39.095Z,12.60
2022-12-04T16:35:07.503Z,12.60
2022-12-04T16:37:35.437Z,12.60
2022-12-04T16:40:06.506Z,12.70
2022-12-04T16:42:35.995Z,12.80
2022-12-04T16:45:04.120Z,12.80
2022-12-04T16:47:32.560Z,12.90
2022-12-04T16:50:00.509Z,12.90
2022-12-04T16:52:28.484Z,12.90
2022-12-04T16:55:00.480Z,12.90
2022-12-04T16:57:31.226Z,12.90
2022-12-04T17:00:00.671Z,12.90
2022-12-04T17:02:28.530Z,12.80
2022-12-04T17:04:58.095Z,12.80
2022-12-04T17:07:26.360Z,12.80
2022-12-04T17:09:54.642Z,12.80
2022-12-04T17:12:22.565Z,12.90
2022-12-04T17:14:51.099Z,12.80
2022-12-04T17:17:20.540Z,12.80
2022-12-04T17:19:48.769Z,12.80
2022-12-04T17:22:20.866Z,12.80
2022-12-04T17:24:55.615Z,12.80
2022-12-04T17:27:24.134Z,12.90
2022-12-04T17:29:52.177Z,12.80
2022-12-04T17:32:21.612Z,12.70
2022-12-04T17:34:49.534Z,12.70
2022-12-04T17:37:17.976Z,12.70
2022-12-04T17:39:45.757Z,12.70
2022-12-04T17:42:15.592Z,12.80
2022-12-04T17:44:43.416Z,12.90
2022-12-04T17:47:11.624Z,12.90
2022-12-04T17:49:40.829Z,12.90
2022-12-04T17:52:08.730Z,12.90
2022-12-04T17:54:36.590Z,12.90
2022-12-04T17:57:04.431Z,12.80
2022-12-04T17:59:32.382Z,12.70
2022-12-04T18:02:00.319Z,12.80
2022-12-04T18:04:28.189Z,12.80
2022-12-04T18:06:57.437Z,12.80
2022-12-04T18:09:25.118Z,12.80
2022-12-04T18:11:52.812Z,12.80
2022-12-04T18:14:22.125Z,12.90
2022-12-04T18:16:52.797Z,12.90
2022-12-04T18:19:21.065Z,12.90
2022-12-04T18:21:48.997Z,13.00
2022-12-04T18:24:18.685Z,13.00
2022-12-04T18:26:48.203Z,13.10
2022-12-04T18:29:17.702Z,13.00
2022-12-04T18:31:45.894Z,13.00
2022-12-04T18:34:14.224Z,13.10
2022-12-04T18:36:42.321Z,13.00
2022-12-04T18:39:13.694Z,13.10
2022-12-04T18:41:43.736Z,13.00
2022-12-04T18:44:11.999Z,13.00
2022-12-04T18:46:40.015Z,13.00
2022-12-04T18:49:09.280Z,13.00
2022-12-04T18:51:37.822Z,13.00
2022-12-04T18:54:07.912Z,13.10
2022-12-04T18:56:36.356Z,13.10
2022-12-04T18:59:08.545Z,13.00
2022-12-04T19:01:36.502Z,13.00
2022-12-04T19:04:05.561Z,13.10
2022-12-04T19:06:37.608Z,13.10
2022-12-04T19:09:07.723Z,13.10
2022-12-04T19:11:35.959Z,13.10
2022-12-04T19:14:14.722Z,13.10
2022-12-04T19:16:44.846Z,13.00
2022-12-04T19:19:13.142Z,13.00
2022-12-04T19:21:41.540Z,13.00
2022-12-04T19:24:11.490Z,13.00
2022-12-04T19:26:39.414Z,13.00
2022-12-04T19:29:08.778Z,13.00
2022-12-04T19:31:38.183Z,13.00
2022-12-04T19:34:06.357Z,12.90
2022-12-04T19:36:34.683Z,12.90
2022-12-04T19:39:02.819Z,13.00
2022-12-04T19:41:31.498Z,13.00
2022-12-04T19:44:00.162Z,13.00
2022-12-04T19:46:30.913Z,13.00
2022-12-04T19:49:01.582Z,13.00
2022-12-04T19:51:32.292Z,13.10
2022-12-04T19:54:00.735Z,13.10
2022-12-04T19:56:29.812Z,13.10
2022-12-04T19:58:58.424Z,13.10
2022-12-04T20:01:27.268Z,13.10
2022-12-04T20:03:56.543Z,13.20
2022-12-04T20:06:25.593Z,13.20
2022-12-04T20:08:54.977Z,13.10
2022-12-04T20:11:22.945Z,13.10
2022-12-04T20:13:54.061Z,13.00
2022-12-04T20:16:22.269Z,13.00
2022-12-04T20:18:50.464Z,13.00
2022-12-04T20:21:19.902Z,13.10
2022-12-04T20:23:49.909Z,13.10
2022-12-04T20:26:18.713Z,13.20
2022-12-04T20:28:47.129Z,13.20
2022-12-04T20:31:15.882Z,13.20
2022-12-04T20:33:43.877Z,13.20
2022-12-04T20:36:12.195Z,13.10
2022-12-04T20:38:41.570Z,13.20
2022-12-04T20:41:10.655Z,13.10
2022-12-04T20:43:38.602Z,13.20
2022-12-04T20:46:14.519Z,13.20
2022-12-04T20:48:47.906Z,13.30
2022-12-04T20:51:16.804Z,13.20
2022-12-04T20:53:46.070Z,13.20
2022-12-04T20:56:14.222Z,13.20
2022-12-04T20:58:42.552Z,13.30
2022-12-04T21:01:10.940Z,13.30
2022-12-04T21:03:39.312Z,13.30
2022-12-04T21:06:11.320Z,13.20
2022-12-04T21:08:54.749Z,13.20
2022-12-04T21:11:24.555Z,13.30
2022-12-04T21:14:10.163Z,13.30
2022-12-04T21:16:38.070Z,13.30
2022-12-04T21:19:06.549Z,13.30
2022-12-04T21:21:34.942Z,13.30
2022-12-04T21:24:03.356Z,13.40
2022-12-04T21:26:33.889Z,13.40
2022-12-04T21:29:02.018Z,13.40
2022-12-04T21:31:32.944Z,13.40
2022-12-04T21:34:07.716Z,13.30
2022-12-04T21:36:35.709Z,13.20
2022-12-04T21:39:03.640Z,13.20
2022-12-04T21:41:50.544Z,13.30
2022-12-04T21:44:19.397Z,13.40
2022-12-04T21:46:47.593Z,13.30
2022-12-04T21:49:16.097Z,13.30
2022-12-04T21:51:59.872Z,13.40
2022-12-04T21:54:27.970Z,13.40
2022-12-04T21:56:57.833Z,13.40
2022-12-04T21:59:26.424Z,13.40
2022-12-04T22:01:54.620Z,13.40
2022-12-04T22:04:22.872Z,13.40
2022-12-04T22:06:53.727Z,13.40
2022-12-04T22:09:33.090Z,13.50
2022-12-04T22:12:26.376Z,13.60
2022-12-04T22:14:54.166Z,13.60
2022-12-04T22:17:22.430Z,13.60
2022-12-04T22:19:50.458Z,13.50
2022-12-04T22:22:18.932Z,13.50
2022-12-04T22:24:48.369Z,13.50
2022-12-04T22:27:18.153Z,13.50
2022-12-04T22:29:50.890Z,13.50
2022-12-04T22:32:19.627Z,13.50
2022-12-04T22:34:48.820Z,13.40
2022-12-04T22:37:16.712Z,13.40
2022-12-04T22:39:44.668Z,13.40
2022-12-04T22:42:12.705Z,13.40
2022-12-04T22:44:42.655Z,13.50
2022-12-04T22:47:10.639Z,13.50
2022-12-04T22:49:39.034Z,13.50
2022-12-04T22:52:06.959Z,13.50
2022-12-04T22:54:35.107Z,13.50
2022-12-04T22:57:03.270Z,13.40
2022-12-04T22:59:31.371Z,13.50
2022-12-04T23:02:01.096Z,13.50
2022-12-04T23:04:30.085Z,13.60
2022-12-04T23:06:58.126Z,13.50
2022-12-04T23:09:27.993Z,13.60
2022-12-04T23:11:56.296Z,13.60
2022-12-04T23:14:24.587Z,13.50
2022-12-04T23:16:52.610Z,13.50
2022-12-04T23:19:22.398Z,13.50
2022-12-04T23:21:56.646Z,13.50
2022-12-04T23:24:25.287Z,13.50
2022-12-04T23:26:56.154Z,13.50
2022-12-04T23:29:53.933Z,13.60
2022-12-04T23:32:12.981Z,13.60
2022-12-04T23:34:42.767Z,13.60
2022-12-04T23:37:10.656Z,13.60
2022-12-04T23:39:38.709Z,13.50
2022-12-04T23:42:08.069Z,13.60
2022-12-04T23:44:36.104Z,13.70
2022-12-04T23:47:04.213Z,13.70
2022-12-04T23:49:32.279Z,13.70
2022-12-04T23:52:01.892Z,13.70
2022-12-04T23:54:34.770Z,13.70
2022-12-04T23:57:02.565Z,13.80
2022-12-04T23:59:30.448Z,13.70
